createdAt,value
2023-05-17T00:02:30.970Z,9.27
2023-05-17T00:07:33.571Z,8.55
2023-05-17T00:12:36.048Z,7.40
2023-05-17T00:17:38.733Z,8.98
2023-05-17T00:22:43.240Z,9.43
2023-05-17T00:27:45.907Z,9.02
2023-05-17T00:32:48.598Z,8.65
2023-05-17T00:37:51.677Z,8.63
2023-05-17T00:42:54.150Z,8.00
2023-05-17T00:47:58.299Z,6.70
2023-05-17T00:53:01.712Z,7.13
2023-05-17T00:58:04.662Z,7.55
2023-05-17T01:03:07.379Z,5.63
2023-05-17T01:08:10.116Z,6.72
2023-05-17T01:13:53.478Z,5.90
2023-05-17T01:19:12.638Z,6.05
2023-05-17T01:24:39.942Z,5.55
2023-05-17T01:29:44.957Z,5.80
2023-05-17T01:34:47.498Z,5.43
2023-05-17T01:39:50.313Z,4.72
2023-05-17T01:44:55.823Z,4.20
2023-05-17T01:50:00.559Z,6.20
2023-05-17T01:55:30.168Z,4.77
2023-05-17T02:00:33.060Z,4.70
2023-05-17T02:05:35.594Z,5.38
2023-05-17T02:10:38.331Z,4.43
2023-05-17T02:15:40.986Z,4.30
2023-05-17T02:20:43.632Z,4.88
2023-05-17T02:25:46.079Z,5.28
2023-05-17T02:30:48.730Z,3.93
2023-05-17T02:35:51.208Z,4.78
2023-05-17T02:40:55.310Z,4.23
2023-05-17T02:45:57.860Z,6.18
2023-05-17T02:51:00.343Z,4.22
2023-05-17T02:56:04.114Z,3.55
2023-05-17T03:01:07.151Z,3.90
2023-05-17T03:06:09.669Z,3.88
2023-05-17T03:11:13.577Z,4.13
2023-05-17T03:16:16.469Z,5.33
2023-05-17T03:21:19.654Z,4.07
2023-05-17T03:26:24.251Z,3.75
2023-05-17T03:31:28.015Z,4.13
2023-05-17T03:36:31.449Z,3.60
2023-05-17T03:41:34.796Z,2.97
2023-05-17T03:46:37.500Z,3.63
2023-05-17T03:51:41.022Z,3.45
2023-05-17T03:56:47.106Z,2.93
2023-05-17T04:01:50.194Z,5.65
2023-05-17T04:06:52.871Z,3.65
2023-05-17T04:11:55.573Z,3.80
2023-05-17T04:16:58.244Z,4.28
2023-05-17T04:22:01.039Z,3.63
2023-05-17T04:27:05.337Z,3.97
2023-05-17T04:32:08.565Z,4.68
2023-05-17T04:37:11.440Z,3.53
2023-05-17T04:42:14.904Z,3.47
2023-05-17T04:47:23.290Z,4.15
2023-05-17T04:52:27.625Z,2.22
2023-05-17T04:57:30.673Z,3.53
2023-05-17T05:02:39.301Z,4.03
2023-05-17T05:07:42.512Z,3.63
2023-05-17T05:12:45.949Z,4.78
2023-05-17T05:17:48.867Z,3.03
2023-05-17T05:22:51.581Z,3.00
2023-05-17T05:27:55.712Z,3.25
2023-05-17T05:32:58.530Z,2.67
2023-05-17T05:38:01.680Z,3.87
2023-05-17T05:43:04.276Z,4.60
2023-05-17T05:48:08.984Z,3.50
2023-05-17T05:53:18.875Z,3.33
2023-05-17T05:58:30.015Z,3.70
2023-05-17T06:03:32.664Z,4.07
2023-05-17T06:08:35.173Z,4.20
2023-05-17T06:13:37.661Z,3.22
2023-05-17T06:18:40.285Z,3.90
2023-05-17T06:23:42.817Z,3.97
2023-05-17T06:28:45.259Z,4.73
2023-05-17T06:33:47.881Z,4.38
2023-05-17T06:38:50.686Z,3.73
2023-05-17T06:43:53.105Z,3.03
2023-05-17T06:48:55.864Z,2.73
2023-05-17T06:53:58.774Z,2.53
2023-05-17T06:59:01.336Z,4.27
2023-05-17T07:04:04.133Z,3.47
2023-05-17T07:09:07.213Z,3.43
2023-05-17T07:14:09.771Z,3.30
2023-05-17T07:19:12.573Z,3.55
2023-05-17T07:24:15.401Z,5.10
2023-05-17T07:29:17.937Z,3.97
2023-05-17T07:34:20.560Z,4.37
2023-05-17T07:39:23.256Z,3.27
2023-05-17T07:44:25.797Z,3.00
2023-05-17T07:49:28.438Z,2.97
2023-05-17T07:54:31.487Z,3.80
2023-05-17T07:59:34.019Z,3.58
2023-05-17T08:04:36.658Z,3.15
2023-05-17T08:09:40.263Z,3.38
2023-05-17T08:14:43.185Z,2.10
2023-05-17T08:19:45.750Z,2.45
2023-05-17T08:24:48.311Z,2.38
2023-05-17T08:29:51.841Z,2.47
2023-05-17T08:34:55.008Z,3.50
2023-05-17T08:39:57.530Z,2.15
2023-05-17T08:45:00.106Z,2.53
2023-05-17T08:50:06.296Z,2.00
2023-05-17T08:55:09.647Z,2.45
2023-05-17T09:00:14.129Z,3.35
2023-05-17T09:05:16.946Z,2.00
2023-05-17T09:10:20.018Z,2.38
2023-05-17T09:15:24.187Z,3.13
2023-05-17T09:20:34.509Z,2.35
2023-05-17T09:25:37.486Z,1.80
2023-05-17T09:30:41.959Z,3.20
2023-05-17T09:35:44.504Z,1.63
2023-05-17T09:40:48.535Z,2.35
2023-05-17T09:45:58.487Z,2.88
2023-05-17T09:51:01.304Z,2.85
2023-05-17T09:56:05.771Z,3.05
2023-05-17T10:01:11.039Z,2.35
2023-05-17T10:06:23.757Z,1.88
2023-05-17T10:11:39.164Z,2.10
2023-05-17T10:16:43.113Z,1.90
2023-05-17T10:21:47.733Z,2.20
2023-05-17T10:26:51.144Z,2.15
2023-05-17T10:31:58.602Z,2.60
2023-05-17T10:37:02.351Z,2.00
2023-05-17T10:42:14.923Z,2.60
2023-05-17T10:47:18.150Z,1.13
2023-05-17T10:52:23.786Z,4.28
2023-05-17T10:57:50.806Z,1.92
2023-05-17T11:03:17.191Z,1.73
2023-05-17T11:08:21.386Z,2.50
2023-05-17T11:13:31.788Z,1.08
2023-05-17T11:18:51.300Z,2.53
2023-05-17T11:23:56.747Z,2.38
2023-05-17T11:29:12.834Z,2.90
2023-05-17T11:34:18.593Z,3.40
2023-05-17T11:39:22.925Z,2.55
2023-05-17T11:44:30.329Z,2.13
2023-05-17T11:49:37.165Z,1.65
2023-05-17T11:54:40.722Z,2.58
2023-05-17T11:59:43.649Z,2.45
2023-05-17T12:04:46.860Z,2.20
2023-05-17T12:09:50.236Z,2.22
2023-05-17T12:14:53.055Z,1.65
2023-05-17T12:19:55.927Z,2.45
2023-05-17T12:24:58.506Z,2.20
2023-05-17T12:30:15.378Z,2.00
2023-05-17T12:35:18.005Z,2.28
2023-05-17T12:40:20.750Z,2.25
2023-05-17T12:45:23.283Z,2.05
2023-05-17T12:50:32.464Z,1.30
2023-05-17T12:55:37.709Z,1.77
2023-05-17T13:00:40.337Z,2.20
2023-05-17T13:05:44.195Z,1.70
2023-05-17T13:10:46.851Z,1.58
2023-05-17T13:15:50.498Z,2.35
2023-05-17T13:20:53.060Z,2.58
2023-05-17T13:25:55.482Z,1.90
2023-05-17T13:30:57.908Z,1.98
2023-05-17T13:36:00.713Z,2.78
2023-05-17T13:41:03.462Z,2.47
2023-05-17T13:46:06.094Z,2.00
2023-05-17T13:51:08.709Z,3.20
2023-05-17T13:56:11.330Z,2.40
2023-05-17T14:01:15.791Z,2.03
2023-05-17T14:06:18.369Z,1.95
2023-05-17T14:11:21.692Z,2.22
2023-05-17T14:16:25.401Z,1.92
2023-05-17T14:21:27.907Z,1.73
2023-05-17T14:26:30.625Z,2.00
2023-05-17T14:31:33.155Z,1.80
2023-05-17T14:36:36.866Z,1.50
2023-05-17T14:41:39.608Z,3.25
2023-05-17T14:46:42.074Z,1.73
2023-05-17T14:51:45.132Z,2.97
2023-05-17T14:56:48.085Z,1.60
2023-05-17T15:01:50.919Z,1.50
2023-05-17T15:06:53.472Z,2.05
2023-05-17T15:12:00.846Z,1.92
2023-05-17T15:17:04.385Z,2.53
2023-05-17T15:22:06.891Z,2.33
2023-05-17T15:27:12.629Z,2.03
2023-05-17T15:32:15.071Z,1.77
2023-05-17T15:37:17.972Z,2.63
2023-05-17T15:42:20.422Z,1.38
2023-05-17T15:47:28.671Z,2.00
2023-05-17T15:52:37.859Z,1.83
2023-05-17T15:57:41.433Z,2.50
2023-05-17T16:02:43.927Z,2.00
2023-05-17T16:07:46.662Z,1.47
2023-05-17T16:12:50.364Z,1.30
2023-05-17T16:17:53.178Z,1.83
2023-05-17T16:22:56.259Z,1.58
2023-05-17T16:27:58.742Z,1.95
2023-05-17T16:33:01.402Z,1.88
2023-05-17T16:38:03.957Z,1.90
2023-05-17T16:43:06.798Z,2.17
2023-05-17T16:48:09.332Z,1.70
2023-05-17T16:53:12.424Z,1.75
2023-05-17T16:58:15.241Z,2.37
2023-05-17T17:03:17.772Z,1.57
2023-05-17T17:08:20.416Z,2.08
2023-05-17T17:13:22.953Z,1.50
2023-05-17T17:18:25.721Z,2.00
2023-05-17T17:23:28.238Z,1.77
2023-05-17T17:28:30.897Z,2.03
2023-05-17T17:33:37.087Z,2.05
2023-05-17T17:38:39.778Z,1.90
2023-05-17T17:43:45.820Z,2.03
2023-05-17T17:48:48.279Z,2.00
2023-05-17T17:53:53.948Z,2.45
2023-05-17T17:58:56.489Z,2.80
2023-05-17T18:03:59.255Z,2.47
2023-05-17T18:09:01.753Z,2.50
2023-05-17T18:14:04.455Z,2.38
2023-05-17T18:19:07.045Z,1.80
2023-05-17T18:24:09.932Z,2.07
2023-05-17T18:29:12.466Z,2.58
2023-05-17T18:34:15.134Z,2.23
2023-05-17T18:39:17.569Z,2.13
2023-05-17T18:44:20.629Z,1.80
2023-05-17T18:49:37.445Z,2.07
2023-05-17T18:54:40.126Z,1.40
2023-05-17T18:59:42.704Z,2.38
2023-05-17T19:04:45.422Z,2.00
2023-05-17T19:09:47.955Z,1.63
2023-05-17T19:14:50.583Z,1.50
2023-05-17T19:19:53.069Z,1.65
2023-05-17T19:24:55.984Z,1.67
2023-05-17T19:29:58.617Z,1.60
2023-05-17T19:35:04.042Z,3.15
2023-05-17T19:40:07.147Z,4.63
2023-05-17T19:45:11.074Z,3.90
2023-05-17T19:50:14.032Z,3.25
2023-05-17T19:55:21.893Z,4.05
2023-05-17T20:00:24.558Z,4.30
2023-05-17T20:05:27.317Z,5.35
2023-05-17T20:10:32.760Z,7.90
2023-05-17T20:15:35.588Z,4.70
2023-05-17T20:20:38.006Z,3.73
2023-05-17T20:25:41.931Z,2.38
2023-05-17T20:30:45.584Z,3.23
2023-05-17T20:35:48.058Z,1.83
2023-05-17T20:40:52.043Z,1.93
2023-05-17T20:45:54.992Z,2.28
2023-05-17T20:50:57.733Z,2.53
2023-05-17T20:56:00.373Z,2.90
2023-05-17T21:01:02.985Z,2.27
2023-05-17T21:06:06.812Z,1.73
2023-05-17T21:11:09.699Z,1.97
2023-05-17T21:16:12.205Z,1.80
2023-05-17T21:21:14.882Z,1.60
2023-05-17T21:26:17.860Z,1.70
2023-05-17T21:31:21.525Z,1.93
2023-05-17T21:36:24.314Z,2.33
2023-05-17T21:41:29.078Z,1.87
2023-05-17T21:46:31.695Z,2.47
2023-05-17T21:51:34.315Z,1.73
2023-05-17T21:56:38.270Z,1.67
2023-05-17T22:01:40.783Z,2.33
2023-05-17T22:06:43.288Z,1.73
2023-05-17T22:11:46.567Z,1.50
2023-05-17T22:16:50.385Z,1.67
2023-05-17T22:21:52.949Z,1.90
2023-05-17T22:26:58.630Z,1.37
2023-05-17T22:32:01.481Z,1.73
2023-05-17T22:37:07.341Z,2.27
2023-05-17T22:42:10.124Z,2.17
2023-05-17T22:47:14.863Z,1.33
2023-05-17T22:52:18.732Z,2.40
2023-05-17T22:57:21.552Z,2.90
2023-05-17T23:02:24.094Z,1.57
2023-05-17T23:07:27.870Z,2.60
2023-05-17T23:12:32.471Z,1.80
2023-05-17T23:17:35.603Z,3.77
2023-05-17T23:22:39.006Z,3.17
2023-05-17T23:27:44.308Z,2.70
2023-05-17T23:32:48.655Z,2.67
2023-05-17T23:37:51.493Z,2.80
2023-05-17T23:42:54.013Z,2.33
2023-05-17T23:48:00.388Z,3.03
2023-05-17T23:53:03.652Z,2.70
2023-05-17T23:58:06.141Z,2.30
